sensor_id;sensor_type;location;lat;lon;timestamp;pressure;altitude;pressure_sealevel;temperature;humidity
11413;BME280;5762;43.256;26.960;2023-12-20T00:00:51;100812.80;;;3.89;100.00
11413;BME280;5762;43.256;26.960;2023-12-20T00:03:20;100802.38;;;3.69;100.00
11413;BME280;5762;43.256;26.960;2023-12-20T00:05:50;100796.97;;;3.48;100.00
11413;BME280;5762;43.256;26.960;2023-12-20T00:08:18;100808.64;;;3.54;100.00
11413;BME280;5762;43.256;26.960;2023-12-20T00:10:46;100816.06;;;3.61;100.00
11413;BME280;5762;43.256;26.960;2023-12-20T00:13:15;100831.82;;;3.69;100.00
11413;BME280;5762;43.256;26.960;2023-12-20T00:15:43;100839.55;;;3.77;100.00
11413;BME280;5762;43.256;26.960;2023-12-20T00:18:12;100839.55;;;3.77;100.00
11413;BME280;5762;43.256;26.960;2023-12-20T00:20:41;100834.48;;;3.78;100.00
11413;BME280;5762;43.256;26.960;2023-12-20T00:23:10;100836.80;;;3.75;100.00
11413;BME280;5762;43.256;26.960;2023-12-20T00:25:39;100844.02;;;3.74;100.00
11413;BME280;5762;43.256;26.960;2023-12-20T00:28:08;100841.56;;;3.73;100.00
11413;BME280;5762;43.256;26.960;2023-12-20T00:30:36;100844.53;;;3.74;100.00
11413;BME280;5762;43.256;26.960;2023-12-20T00:33:05;100839.41;;;3.63;100.00
11413;BME280;5762;43.256;26.960;2023-12-20T00:35:33;100831.02;;;3.50;100.00
11413;BME280;5762;43.256;26.960;2023-12-20T00:38:02;100825.37;;;3.49;100.00
11413;BME280;5762;43.256;26.960;2023-12-20T00:40:32;100817.89;;;3.40;100.00
11413;BME280;5762;43.256;26.960;2023-12-20T00:43:00;100816.11;;;3.43;100.00
11413;BME280;5762;43.256;26.960;2023-12-20T00:45:29;100813.95;;;3.42;100.00
11413;BME280;5762;43.256;26.960;2023-12-20T00:47:58;100811.05;;;3.34;100.00
11413;BME280;5762;43.256;26.960;2023-12-20T00:50:27;100812.02;;;3.40;100.00
11413;BME280;5762;43.256;26.960;2023-12-20T00:52:56;100827.67;;;3.55;100.00
11413;BME280;5762;43.256;26.960;2023-12-20T00:55:25;100826.03;;;3.63;100.00
11413;BME280;5762;43.256;26.960;2023-12-20T00:57:54;100821.49;;;3.63;100.00
11413;BME280;5762;43.256;26.960;2023-12-20T01:00:22;100817.09;;;3.69;100.00
11413;BME280;5762;43.256;26.960;2023-12-20T01:02:51;100807.00;;;3.62;100.00
11413;BME280;5762;43.256;26.960;2023-12-20T01:05:20;100804.10;;;3.54;100.00
11413;BME280;5762;43.256;26.960;2023-12-20T01:07:52;100791.76;;;3.53;100.00
11413;BME280;5762;43.256;26.960;2023-12-20T01:10:20;100789.38;;;3.54;100.00
11413;BME280;5762;43.256;26.960;2023-12-20T01:12:49;100784.11;;;3.48;100.00
11413;BME280;5762;43.256;26.960;2023-12-20T01:15:18;100787.52;;;3.55;100.00
11413;BME280;5762;43.256;26.960;2023-12-20T01:17:46;100787.52;;;3.55;100.00
11413;BME280;5762;43.256;26.960;2023-12-20T01:20:15;100789.30;;;3.61;100.00
11413;BME280;5762;43.256;26.960;2023-12-20T01:22:44;100785.73;;;3.58;100.00
11413;BME280;5762;43.256;26.960;2023-12-20T01:25:13;100778.90;;;3.53;100.00
11413;BME280;5762;43.256;26.960;2023-12-20T01:27:41;100775.63;;;3.51;100.00
11413;BME280;5762;43.256;26.960;2023-12-20T01:30:10;100770.88;;;3.53;100.00
11413;BME280;5762;43.256;26.960;2023-12-20T01:32:39;100765.80;;;3.63;100.00
11413;BME280;5762;43.256;26.960;2023-12-20T01:35:08;100766.01;;;3.70;100.00
11413;BME280;5762;43.256;26.960;2023-12-20T01:37:36;100761.99;;;3.70;100.00
11413;BME280;5762;43.256;26.960;2023-12-20T01:40:05;100753.30;;;3.66;100.00
11413;BME280;5762;43.256;26.960;2023-12-20T01:42:35;100743.77;;;3.70;100.00
11413;BME280;5762;43.256;26.960;2023-12-20T01:45:04;100739.53;;;3.72;100.00
11413;BME280;5762;43.256;26.960;2023-12-20T01:47:33;100735.81;;;3.73;100.00
11413;BME280;5762;43.256;26.960;2023-12-20T01:50:02;100727.73;;;3.61;100.00
11413;BME280;5762;43.256;26.960;2023-12-20T01:52:31;100703.65;;;3.40;100.00
11413;BME280;5762;43.256;26.960;2023-12-20T01:55:00;100688.42;;;3.01;100.00
11413;BME280;5762;43.256;26.960;2023-12-20T01:57:30;100683.61;;;2.83;100.00
11413;BME280;5762;43.256;26.960;2023-12-20T01:59:59;100682.27;;;2.83;100.00
11413;BME280;5762;43.256;26.960;2023-12-20T02:02:28;100685.34;;;2.77;100.00
11413;BME280;5762;43.256;26.960;2023-12-20T02:04:56;100684.67;;;2.73;100.00
11413;BME280;5762;43.256;26.960;2023-12-20T02:07:25;100682.29;;;2.64;100.00
11413;BME280;5762;43.256;26.960;2023-12-20T02:09:54;100686.08;;;2.66;100.00
11413;BME280;5762;43.256;26.960;2023-12-20T02:12:23;100688.75;;;2.66;100.00
11413;BME280;5762;43.256;26.960;2023-12-20T02:14:52;100691.20;;;2.67;100.00
11413;BME280;5762;43.256;26.960;2023-12-20T02:17:21;100694.03;;;2.73;100.00
11413;BME280;5762;43.256;26.960;2023-12-20T02:19:50;100695.36;;;2.63;100.00
11413;BME280;5762;43.256;26.960;2023-12-20T02:22:19;100700.63;;;2.61;100.00
11413;BME280;5762;43.256;26.960;2023-12-20T02:24:48;100699.06;;;2.62;100.00
11413;BME280;5762;43.256;26.960;2023-12-20T02:27:18;100703.67;;;2.64;100.00
11413;BME280;5762;43.256;26.960;2023-12-20T02:29:48;100703.88;;;2.54;100.00
11413;BME280;5762;43.256;26.960;2023-12-20T02:32:16;100706.55;;;2.54;100.00
11413;BME280;5762;43.256;26.960;2023-12-20T02:34:47;100701.27;;;2.47;100.00
11413;BME280;5762;43.256;26.960;2023-12-20T02:37:14;100697.34;;;2.50;100.00
11413;BME280;5762;43.256;26.960;2023-12-20T02:39:43;100703.06;;;2.53;100.00
11413;BME280;5762;43.256;26.960;2023-12-20T02:42:11;100707.38;;;2.63;100.00
11413;BME280;5762;43.256;26.960;2023-12-20T02:44:40;100717.86;;;2.74;100.00
11413;BME280;5762;43.256;26.960;2023-12-20T02:47:09;100726.48;;;2.76;100.00
11413;BME280;5762;43.256;26.960;2023-12-20T02:49:37;100732.69;;;2.79;100.00
11413;BME280;5762;43.256;26.960;2023-12-20T02:52:06;100731.57;;;2.78;100.00
11413;BME280;5762;43.256;26.960;2023-12-20T02:54:35;100732.70;;;2.70;100.00
11413;BME280;5762;43.256;26.960;2023-12-20T02:57:04;100724.45;;;2.62;100.00
11413;BME280;5762;43.256;26.960;2023-12-20T02:59:33;100723.78;;;2.58;100.00
11413;BME280;5762;43.256;26.960;2023-12-20T03:02:02;100715.07;;;2.44;100.00
11413;BME280;5762;43.256;26.960;2023-12-20T03:04:31;100711.81;;;2.33;100.00
11413;BME280;5762;43.256;26.960;2023-12-20T03:07:00;100711.62;;;2.19;100.00
11413;BME280;5762;43.256;26.960;2023-12-20T03:09:29;100720.70;;;2.27;100.00
11413;BME280;5762;43.256;26.960;2023-12-20T03:11:58;100726.34;;;2.28;100.00
11413;BME280;5762;43.256;26.960;2023-12-20T03:14:26;100732.94;;;2.25;100.00
11413;BME280;5762;43.256;26.960;2023-12-20T03:16:55;100742.66;;;2.29;100.00
11413;BME280;5762;43.256;26.960;2023-12-20T03:19:24;100738.24;;;2.16;100.00
11413;BME280;5762;43.256;26.960;2023-12-20T03:21:53;100739.53;;;2.23;100.00
11413;BME280;5762;43.256;26.960;2023-12-20T03:24:21;100760.88;;;2.39;100.00
11413;BME280;5762;43.256;26.960;2023-12-20T03:26:50;100762.13;;;2.36;100.00
11413;BME280;5762;43.256;26.960;2023-12-20T03:29:18;100769.16;;;2.30;100.00
11413;BME280;5762;43.256;26.960;2023-12-20T03:31:47;100770.97;;;2.21;100.00
11413;BME280;5762;43.256;26.960;2023-12-20T03:34:16;100771.41;;;2.18;100.00
11413;BME280;5762;43.256;26.960;2023-12-20T03:36:45;100774.98;;;2.21;100.00
11413;BME280;5762;43.256;26.960;2023-12-20T03:39:14;100785.02;;;2.25;100.00
11413;BME280;5762;43.256;26.960;2023-12-20T03:41:43;100794.36;;;2.25;100.00
11413;BME280;5762;43.256;26.960;2023-12-20T03:44:12;100798.02;;;2.31;100.00
11413;BME280;5762;43.256;26.960;2023-12-20T03:46:41;100799.02;;;2.21;100.00
11413;BME280;5762;43.256;26.960;2023-12-20T03:49:10;100804.70;;;2.31;100.00
11413;BME280;5762;43.256;26.960;2023-12-20T03:51:39;100809.69;;;2.37;100.00
11413;BME280;5762;43.256;26.960;2023-12-20T03:54:08;100820.37;;;2.37;100.00
11413;BME280;5762;43.256;26.960;2023-12-20T03:56:37;100817.36;;;2.26;100.00
11413;BME280;5762;43.256;26.960;2023-12-20T03:59:05;100816.59;;;2.19;100.00
11413;BME280;5762;43.256;26.960;2023-12-20T04:01:34;100820.16;;;2.22;100.00
11413;BME280;5762;43.256;26.960;2023-12-20T04:04:03;100803.64;;;1.91;100.00
11413;BME280;5762;43.256;26.960;2023-12-20T04:06:32;100813.17;;;1.96;100.00
11413;BME280;5762;43.256;26.960;2023-12-20T04:09:00;100818.11;;;1.93;100.00
11413;BME280;5762;43.256;26.960;2023-12-20T04:11:29;100818.78;;;1.82;100.00
11413;BME280;5762;43.256;26.960;2023-12-20T04:13:58;100825.25;;;1.83;100.00
11413;BME280;5762;43.256;26.960;2023-12-20T04:16:27;100840.20;;;1.91;100.00
11413;BME280;5762;43.256;26.960;2023-12-20T04:18:56;100852.30;;;1.93;100.00
11413;BME280;5762;43.256;26.960;2023-12-20T04:21:24;100861.34;;;1.92;100.00
11413;BME280;5762;43.256;26.960;2023-12-20T04:23:53;100873.84;;;1.98;100.00
11413;BME280;5762;43.256;26.960;2023-12-20T04:26:22;100877.36;;;1.92;100.00
11413;BME280;5762;43.256;26.960;2023-12-20T04:28:51;100878.17;;;1.93;100.00
11413;BME280;5762;43.256;26.960;2023-12-20T04:31:20;100886.70;;;1.92;100.00
11413;BME280;5762;43.256;26.960;2023-12-20T04:33:49;100886.30;;;1.73;100.00
11413;BME280;5762;43.256;26.960;2023-12-20T04:36:18;100881.45;;;1.44;100.00
11413;BME280;5762;43.256;26.960;2023-12-20T04:38:46;100890.68;;;1.48;100.00
11413;BME280;5762;43.256;26.960;2023-12-20T04:41:15;100894.13;;;1.32;100.00
11413;BME280;5762;43.256;26.960;2023-12-20T04:43:44;100896.00;;;1.12;100.00
11413;BME280;5762;43.256;26.960;2023-12-20T04:46:13;100911.27;;;1.14;100.00
11413;BME280;5762;43.256;26.960;2023-12-20T04:48:42;100926.35;;;1.11;100.00
11413;BME280;5762;43.256;26.960;2023-12-20T04:51:11;100944.22;;;0.91;100.00
11413;BME280;5762;43.256;26.960;2023-12-20T04:53:40;100963.19;;;0.92;100.00
11413;BME280;5762;43.256;26.960;2023-12-20T04:56:08;100995.47;;;0.93;100.00
11413;BME280;5762;43.256;26.960;2023-12-20T04:58:37;101021.92;;;0.94;100.00
11413;BME280;5762;43.256;26.960;2023-12-20T05:01:07;101047.15;;;0.98;100.00
11413;BME280;5762;43.256;26.960;2023-12-20T05:03:36;101089.80;;;0.98;100.00
11413;BME280;5762;43.256;26.960;2023-12-20T05:06:04;101121.59;;;1.00;100.00
11413;BME280;5762;43.256;26.960;2023-12-20T05:08:33;101148.42;;;0.92;100.00
11413;BME280;5762;43.256;26.960;2023-12-20T05:11:01;101187.66;;;0.87;100.00
11413;BME280;5762;43.256;26.960;2023-12-20T05:13:30;101221.25;;;0.82;100.00
11413;BME280;5762;43.256;26.960;2023-12-20T05:15:59;101263.11;;;0.88;100.00
11413;BME280;5762;43.256;26.960;2023-12-20T05:18:26;101316.19;;;1.00;100.00
11413;BME280;5762;43.256;26.960;2023-12-20T05:20:55;101357.19;;;0.99;100.00
11413;BME280;5762;43.256;26.960;2023-12-20T05:23:24;101412.28;;;1.03;100.00
11413;BME280;5762;43.256;26.960;2023-12-20T05:25:53;101443.65;;;0.90;100.00
11413;BME280;5762;43.256;26.960;2023-12-20T05:28:21;101494.80;;;1.00;100.00
11413;BME280;5762;43.256;26.960;2023-12-20T05:30:49;101543.64;;;1.07;100.00
11413;BME280;5762;43.256;26.960;2023-12-20T05:33:18;101592.53;;;1.14;100.00
11413;BME280;5762;43.256;26.960;2023-12-20T05:35:47;101641.13;;;1.31;100.00
11413;BME280;5762;43.256;26.960;2023-12-20T05:38:16;101690.08;;;1.45;100.00
11413;BME280;5762;43.256;26.960;2023-12-20T05:40:45;101714.67;;;1.51;100.00
11413;BME280;5762;43.256;26.960;2023-12-20T05:43:13;101741.56;;;1.60;100.00
11413;BME280;5762;43.256;26.960;2023-12-20T05:45:42;101764.89;;;1.73;100.00
11413;BME280;5762;43.256;26.960;2023-12-20T05:48:11;101783.36;;;1.74;100.00
11413;BME280;5762;43.256;26.960;2023-12-20T05:50:40;101780.95;;;1.79;100.00
11413;BME280;5762;43.256;26.960;2023-12-20T05:53:09;101788.14;;;1.89;100.00
11413;BME280;5762;43.256;26.960;2023-12-20T05:55:38;101780.02;;;1.97;100.00
11413;BME280;5762;43.256;26.960;2023-12-20T05:58:06;101773.27;;;2.01;100.00
11413;BME280;5762;43.256;26.960;2023-12-20T06:00:35;101771.08;;;2.12;100.00
11413;BME280;5762;43.256;26.960;2023-12-20T06:03:04;101756.51;;;2.25;100.00
11413;BME280;5762;43.256;26.960;2023-12-20T06:05:32;101750.59;;;2.29;100.00
11413;BME280;5762;43.256;26.960;2023-12-20T06:08:01;101735.88;;;2.40;100.00
11413;BME280;5762;43.256;26.960;2023-12-20T06:10:29;101708.97;;;2.48;100.00
11413;BME280;5762;43.256;26.960;2023-12-20T06:12:58;101698.44;;;2.57;100.00
11413;BME280;5762;43.256;26.960;2023-12-20T06:15:27;101665.03;;;2.57;100.00
11413;BME280;5762;43.256;26.960;2023-12-20T06:17:56;101644.14;;;2.74;100.00
11413;BME280;5762;43.256;26.960;2023-12-20T06:20:25;101617.40;;;2.81;100.00
11413;BME280;5762;43.256;26.960;2023-12-20T06:22:54;101601.94;;;3.00;100.00
11413;BME280;5762;43.256;26.960;2023-12-20T06:25:22;101574.98;;;3.15;100.00
11413;BME280;5762;43.256;26.960;2023-12-20T06:27:51;101533.22;;;3.20;100.00
11413;BME280;5762;43.256;26.960;2023-12-20T06:30:19;101493.50;;;3.37;100.00
11413;BME280;5762;43.256;26.960;2023-12-20T06:32:48;101449.12;;;3.45;100.00
11413;BME280;5762;43.256;26.960;2023-12-20T06:35:17;101409.63;;;3.63;100.00
11413;BME280;5762;43.256;26.960;2023-12-20T06:37:46;101350.42;;;3.62;100.00
11413;BME280;5762;43.256;26.960;2023-12-20T06:40:15;101300.47;;;3.65;100.00
11413;BME280;5762;43.256;26.960;2023-12-20T06:42:49;101269.93;;;3.88;100.00
11413;BME280;5762;43.256;26.960;2023-12-20T06:45:13;101223.97;;;3.91;100.00
11413;BME280;5762;43.256;26.960;2023-12-20T06:47:42;101187.79;;;4.07;100.00
11413;BME280;5762;43.256;26.960;2023-12-20T06:50:11;101149.23;;;4.17;100.00
11413;BME280;5762;43.256;26.960;2023-12-20T06:52:40;101112.86;;;4.28;100.00
11413;BME280;5762;43.256;26.960;2023-12-20T06:55:09;101069.83;;;4.23;100.00
11413;BME280;5762;43.256;26.960;2023-12-20T06:57:37;101043.63;;;4.34;100.00
11413;BME280;5762;43.256;26.960;2023-12-20T07:00:07;101013.25;;;4.40;100.00
11413;BME280;5762;43.256;26.960;2023-12-20T07:02:36;100988.10;;;4.53;100.00
11413;BME280;5762;43.256;26.960;2023-12-20T07:05:04;100959.95;;;4.53;100.00
11413;BME280;5762;43.256;26.960;2023-12-20T07:07:33;100946.00;;;4.62;100.00
11413;BME280;5762;43.256;26.960;2023-12-20T07:10:01;100932.11;;;4.75;100.00
11413;BME280;5762;43.256;26.960;2023-12-20T07:12:30;100907.87;;;4.81;100.00
11413;BME280;5762;43.256;26.960;2023-12-20T07:14:59;100887.23;;;4.82;100.00
11413;BME280;5762;43.256;26.960;2023-12-20T07:17:27;100876.89;;;4.88;100.00
11413;BME280;5762;43.256;26.960;2023-12-20T07:19:56;100861.39;;;5.01;100.00
11413;BME280;5762;43.256;26.960;2023-12-20T07:22:25;100850.36;;;5.12;100.00
11413;BME280;5762;43.256;26.960;2023-12-20T07:24:54;100843.67;;;5.26;100.00
11413;BME280;5762;43.256;26.960;2023-12-20T07:27:22;100827.69;;;5.31;100.00
11413;BME280;5762;43.256;26.960;2023-12-20T07:29:51;100801.27;;;5.26;100.00
11413;BME280;5762;43.256;26.960;2023-12-20T07:32:19;100782.73;;;5.38;100.00
11413;BME280;5762;43.256;26.960;2023-12-20T07:34:48;100769.05;;;5.52;100.00
11413;BME280;5762;43.256;26.960;2023-12-20T07:37:17;100753.92;;;5.62;100.00
11413;BME280;5762;43.256;26.960;2023-12-20T07:39:46;100745.63;;;5.64;100.00
11413;BME280;5762;43.256;26.960;2023-12-20T07:42:14;100728.16;;;5.78;100.00
11413;BME280;5762;43.256;26.960;2023-12-20T07:44:43;100720.72;;;5.83;100.00
11413;BME280;5762;43.256;26.960;2023-12-20T07:47:12;100707.47;;;5.93;100.00
11413;BME280;5762;43.256;26.960;2023-12-20T07:49:41;100679.41;;;5.86;100.00
11413;BME280;5762;43.256;26.960;2023-12-20T07:52:10;100669.57;;;5.92;100.00
11413;BME280;5762;43.256;26.960;2023-12-20T07:54:39;100659.23;;;6.00;100.00
11413;BME280;5762;43.256;26.960;2023-12-20T07:57:07;100636.52;;;5.91;100.00
11413;BME280;5762;43.256;26.960;2023-12-20T07:59:37;100624.74;;;6.12;100.00
11413;BME280;5762;43.256;26.960;2023-12-20T08:02:05;100609.87;;;6.23;100.00
11413;BME280;5762;43.256;26.960;2023-12-20T08:04:33;100595.80;;;6.38;100.00
11413;BME280;5762;43.256;26.960;2023-12-20T08:07:03;100587.52;;;6.42;100.00
11413;BME280;5762;43.256;26.960;2023-12-20T08:09:32;100578.77;;;6.52;100.00
11413;BME280;5762;43.256;26.960;2023-12-20T08:12:00;100571.36;;;6.64;100.00
11413;BME280;5762;43.256;26.960;2023-12-20T08:14:29;100570.67;;;6.73;100.00
11413;BME280;5762;43.256;26.960;2023-12-20T08:16:58;100557.44;;;6.69;100.00
11413;BME280;5762;43.256;26.960;2023-12-20T08:19:27;100540.55;;;6.74;100.00
11413;BME280;5762;43.256;26.960;2023-12-20T08:21:56;100537.46;;;6.87;100.00
11413;BME280;5762;43.256;26.960;2023-12-20T08:24:25;100505.09;;;6.80;100.00
11413;BME280;5762;43.256;26.960;2023-12-20T08:26:54;100495.55;;;6.96;100.00
11413;BME280;5762;43.256;26.960;2023-12-20T08:29:22;100475.20;;;7.08;100.00
11413;BME280;5762;43.256;26.960;2023-12-20T08:31:52;100461.34;;;7.29;100.00
11413;BME280;5762;43.256;26.960;2023-12-20T08:34:21;100437.11;;;7.24;100.00
11413;BME280;5762;43.256;26.960;2023-12-20T08:36:50;100419.92;;;7.35;100.00
11413;BME280;5762;43.256;26.960;2023-12-20T08:39:20;100400.84;;;7.39;100.00
11413;BME280;5762;43.256;26.960;2023-12-20T08:41:49;100398.80;;;7.64;100.00
11413;BME280;5762;43.256;26.960;2023-12-20T08:44:18;100386.42;;;7.68;100.00
11413;BME280;5762;43.256;26.960;2023-12-20T08:46:46;100341.44;;;7.68;100.00
11413;BME280;5762;43.256;26.960;2023-12-20T08:49:15;100337.22;;;7.93;100.00
11413;BME280;5762;43.256;26.960;2023-12-20T08:51:44;100312.68;;;7.99;100.00
11413;BME280;5762;43.256;26.960;2023-12-20T08:54:12;100284.93;;;8.04;100.00
11413;BME280;5762;43.256;26.960;2023-12-20T08:56:41;100269.59;;;8.20;100.00
11413;BME280;5762;43.256;26.960;2023-12-20T08:59:10;100241.81;;;8.27;100.00
11413;BME280;5762;43.256;26.960;2023-12-20T09:01:39;100230.75;;;8.49;100.00
11413;BME280;5762;43.256;26.960;2023-12-20T09:04:08;100205.65;;;8.63;100.00
11413;BME280;5762;43.256;26.960;2023-12-20T09:06:35;100191.25;;;8.91;100.00
11413;BME280;5762;43.256;26.960;2023-12-20T09:09:04;100185.83;;;8.98;100.00
11413;BME280;5762;43.256;26.960;2023-12-20T09:11:34;100176.39;;;8.93;100.00
11413;BME280;5762;43.256;26.960;2023-12-20T09:14:02;100160.41;;;9.02;100.00
11413;BME280;5762;43.256;26.960;2023-12-20T09:16:31;100152.00;;;9.11;100.00
11413;BME280;5762;43.256;26.960;2023-12-20T09:19:00;100132.80;;;9.15;100.00
11413;BME280;5762;43.256;26.960;2023-12-20T09:21:29;100131.41;;;9.25;100.00
11413;BME280;5762;43.256;26.960;2023-12-20T09:23:58;100113.88;;;9.20;100.00
11413;BME280;5762;43.256;26.960;2023-12-20T09:26:26;100108.62;;;9.36;100.00
11413;BME280;5762;43.256;26.960;2023-12-20T09:28:55;100093.20;;;9.39;100.00
11413;BME280;5762;43.256;26.960;2023-12-20T09:31:24;100084.62;;;9.35;100.00
11413;BME280;5762;43.256;26.960;2023-12-20T09:33:53;100109.31;;;9.55;100.00
11413;BME280;5762;43.256;26.960;2023-12-20T09:36:22;100128.96;;;9.65;100.00
11413;BME280;5762;43.256;26.960;2023-12-20T09:38:50;100137.92;;;9.58;100.00
11413;BME280;5762;43.256;26.960;2023-12-20T09:41:19;100143.05;;;9.60;100.00
11413;BME280;5762;43.256;26.960;2023-12-20T09:43:48;100171.69;;;9.61;100.00
11413;BME280;5762;43.256;26.960;2023-12-20T09:46:17;100183.91;;;9.51;100.00
11413;BME280;5762;43.256;26.960;2023-12-20T09:48:47;100155.56;;;9.46;100.00
11413;BME280;5762;43.256;26.960;2023-12-20T09:51:16;100140.09;;;9.59;100.00
11413;BME280;5762;43.256;26.960;2023-12-20T09:53:45;100128.07;;;9.72;100.00
11413;BME280;5762;43.256;26.960;2023-12-20T09:56:14;100100.21;;;9.74;100.00
11413;BME280;5762;43.256;26.960;2023-12-20T09:58:42;100077.30;;;9.98;100.00
11413;BME280;5762;43.256;26.960;2023-12-20T10:01:11;100046.41;;;10.04;100.00
11413;BME280;5762;43.256;26.960;2023-12-20T10:03:40;100037.28;;;10.24;100.00
11413;BME280;5762;43.256;26.960;2023-12-20T10:06:09;100010.17;;;10.29;100.00
11413;BME280;5762;43.256;26.960;2023-12-20T10:08:38;99987.73;;;10.48;100.00
11413;BME280;5762;43.256;26.960;2023-12-20T10:11:07;99994.46;;;10.71;100.00
11413;BME280;5762;43.256;26.960;2023-12-20T10:13:39;99979.08;;;10.86;100.00
11413;BME280;5762;43.256;26.960;2023-12-20T10:16:08;99978.22;;;11.06;100.00
11413;BME280;5762;43.256;26.960;2023-12-20T10:18:36;99981.12;;;11.10;100.00
11413;BME280;5762;43.256;26.960;2023-12-20T10:21:05;99971.89;;;11.11;100.00
11413;BME280;5762;43.256;26.960;2023-12-20T10:23:34;99975.55;;;11.20;100.00
11413;BME280;5762;43.256;26.960;2023-12-20T10:26:03;99960.22;;;11.13;100.00
11413;BME280;5762;43.256;26.960;2023-12-20T10:28:35;99950.56;;;11.23;100.00
11413;BME280;5762;43.256;26.960;2023-12-20T10:31:04;99940.80;;;11.25;100.00
11413;BME280;5762;43.256;26.960;2023-12-20T10:33:33;99920.52;;;11.22;100.00
11413;BME280;5762;43.256;26.960;2023-12-20T10:36:02;99900.78;;;11.35;100.00
11413;BME280;5762;43.256;26.960;2023-12-20T10:38:30;99901.53;;;11.52;100.00
11413;BME280;5762;43.256;26.960;2023-12-20T10:41:00;99900.59;;;11.73;100.00
11413;BME280;5762;43.256;26.960;2023-12-20T10:43:29;99887.05;;;11.87;100.00
11413;BME280;5762;43.256;26.960;2023-12-20T10:45:58;99874.58;;;11.99;100.00
11413;BME280;5762;43.256;26.960;2023-12-20T10:48:28;99841.67;;;12.15;100.00
11413;BME280;5762;43.256;26.960;2023-12-20T10:50:57;99827.42;;;12.45;100.00
11413;BME280;5762;43.256;26.960;2023-12-20T10:53:25;99799.75;;;12.65;100.00
11413;BME280;5762;43.256;26.960;2023-12-20T10:55:55;99789.20;;;12.95;100.00
11413;BME280;5762;43.256;26.960;2023-12-20T10:58:24;99779.64;;;13.17;100.00
11413;BME280;5762;43.256;26.960;2023-12-20T11:01:00;99793.41;;;13.40;100.00
11413;BME280;5762;43.256;26.960;2023-12-20T11:03:23;99800.55;;;13.48;100.00
11413;BME280;5762;43.256;26.960;2023-12-20T11:05:54;99791.50;;;13.41;100.00
11413;BME280;5762;43.256;26.960;2023-12-20T11:08:31;99803.09;;;13.53;100.00
11413;BME280;5762;43.256;26.960;2023-12-20T11:11:09;99788.70;;;13.52;100.00
11413;BME280;5762;43.256;26.960;2023-12-20T11:13:29;99795.19;;;13.54;100.00
11413;BME280;5762;43.256;26.960;2023-12-20T11:15:57;99787.86;;;13.63;100.00
11413;BME280;5762;43.256;26.960;2023-12-20T11:18:30;99782.14;;;13.53;100.00
11413;BME280;5762;43.256;26.960;2023-12-20T11:20:55;99792.88;;;13.50;100.00
11413;BME280;5762;43.256;26.960;2023-12-20T11:23:25;99784.97;;;13.59;100.00
11413;BME280;5762;43.256;26.960;2023-12-20T11:25:55;99764.47;;;13.53;100.00
11413;BME280;5762;43.256;26.960;2023-12-20T11:28:24;99744.72;;;13.41;100.00
11413;BME280;5762;43.256;26.960;2023-12-20T11:30:53;99758.23;;;13.53;100.00
11413;BME280;5762;43.256;26.960;2023-12-20T11:33:22;99740.34;;;13.60;100.00
11413;BME280;5762;43.256;26.960;2023-12-20T11:35:51;99727.15;;;13.65;100.00
11413;BME280;5762;43.256;26.960;2023-12-20T11:38:20;99721.38;;;13.58;100.00
11413;BME280;5762;43.256;26.960;2023-12-20T11:40:48;99693.31;;;13.60;100.00
11413;BME280;5762;43.256;26.960;2023-12-20T11:43:39;99689.71;;;13.62;100.00
11413;BME280;5762;43.256;26.960;2023-12-20T11:46:08;99656.76;;;13.63;100.00
11413;BME280;5762;43.256;26.960;2023-12-20T11:48:39;99641.09;;;13.69;100.00
11413;BME280;5762;43.256;26.960;2023-12-20T11:51:10;99630.05;;;13.74;100.00
11413;BME280;5762;43.256;26.960;2023-12-20T11:53:40;99590.13;;;13.81;100.00
11413;BME280;5762;43.256;26.960;2023-12-20T11:56:09;99525.64;;;13.81;100.00
11413;BME280;5762;43.256;26.960;2023-12-20T11:58:38;99506.92;;;13.80;100.00
11413;BME280;5762;43.256;26.960;2023-12-20T12:01:06;99476.78;;;13.70;100.00
11413;BME280;5762;43.256;26.960;2023-12-20T12:03:35;99455.91;;;13.68;100.00
11413;BME280;5762;43.256;26.960;2023-12-20T12:06:04;99453.52;;;13.66;100.00
11413;BME280;5762;43.256;26.960;2023-12-20T12:08:33;99446.38;;;13.77;100.00
11413;BME280;5762;43.256;26.960;2023-12-20T12:11:02;99439.52;;;13.70;100.00
11413;BME280;5762;43.256;26.960;2023-12-20T12:13:31;99432.73;;;13.85;100.00
11413;BME280;5762;43.256;26.960;2023-12-20T12:16:00;99418.67;;;13.83;100.00
11413;BME280;5762;43.256;26.960;2023-12-20T12:18:29;99421.71;;;13.82;100.00
11413;BME280;5762;43.256;26.960;2023-12-20T12:21:00;99407.70;;;13.86;100.00
11413;BME280;5762;43.256;26.960;2023-12-20T12:23:29;99402.38;;;13.89;100.00
11413;BME280;5762;43.256;26.960;2023-12-20T12:25:58;99409.97;;;13.90;100.00
11413;BME280;5762;43.256;26.960;2023-12-20T12:28:27;99409.70;;;13.97;100.00
11413;BME280;5762;43.256;26.960;2023-12-20T12:30:56;99404.91;;;14.09;100.00
11413;BME280;5762;43.256;26.960;2023-12-20T12:33:25;99382.81;;;14.11;100.00
11413;BME280;5762;43.256;26.960;2023-12-20T12:35:54;99373.34;;;14.17;100.00
11413;BME280;5762;43.256;26.960;2023-12-20T12:38:24;99380.23;;;14.14;100.00
11413;BME280;5762;43.256;26.960;2023-12-20T12:40:54;99367.00;;;14.19;100.00
11413;BME280;5762;43.256;26.960;2023-12-20T12:43:22;99349.55;;;14.26;100.00
11413;BME280;5762;43.256;26.960;2023-12-20T12:45:51;99340.72;;;14.29;100.00
11413;BME280;5762;43.256;26.960;2023-12-20T12:48:19;99324.39;;;14.29;100.00
11413;BME280;5762;43.256;26.960;2023-12-20T12:50:48;99319.64;;;14.32;100.00
11413;BME280;5762;43.256;26.960;2023-12-20T12:53:17;99312.17;;;14.35;100.00
11413;BME280;5762;43.256;26.960;2023-12-20T12:55:45;99316.82;;;14.34;100.00
11413;BME280;5762;43.256;26.960;2023-12-20T12:58:14;99315.46;;;14.34;100.00